< < Back
Terminal Aerodrome Forecast


Current Version              Previous Versions:   1  2  3  4  5  6  7  8  9  

Terminal Aerodrome Forecast

557
FTUS42 KCHS 260530
TAFSAV
TAF
KSAV 260530Z 2606/2706 VRB03KT P6SM SKC
     FM261600 11011KT P6SM SCT050
     FM270100 09003KT P6SM SKC=



Latest METAR

779
SAUS80 KWBC 260800 RRA
MTRSAV
METAR KSAV 260753Z AUTO 00000KT 10SM CLR 22/21 A3008 RMK AO2 SLP186
T02220206


USA.gov is the U.S. government's official web portal to all federal, state and local government web resources and services.